createdAt,value
2023-08-11T00:00:09.777Z,102161.94
2023-08-11T00:02:39.217Z,102161.94
2023-08-11T00:05:07.305Z,102162.34
2023-08-11T00:07:34.549Z,102157.47
2023-08-11T00:10:01.827Z,102159.50
2023-08-11T00:12:28.861Z,102163.16
2023-08-11T00:14:55.959Z,102146.59
2023-08-11T00:17:22.961Z,102163.06
2023-08-11T00:19:49.846Z,102166.03
2023-08-11T00:22:16.625Z,102162.34
2023-08-11T00:24:43.557Z,102163.88
2023-08-11T00:27:10.745Z,102163.09
2023-08-11T00:29:37.737Z,102160.59
2023-08-11T00:32:05.152Z,102159.22
2023-08-11T00:34:32.299Z,102157.53
2023-08-11T00:36:59.179Z,102160.72
2023-08-11T00:39:26.148Z,102169.09
2023-08-11T00:41:52.972Z,102166.69
2023-08-11T00:44:19.893Z,102148.88
2023-08-11T00:46:47.351Z,102149.91
2023-08-11T00:49:15.417Z,102158.66
2023-08-11T00:51:43.297Z,102153.28
2023-08-11T00:54:12.090Z,102153.63
2023-08-11T00:56:45.430Z,102145.53
2023-08-11T00:59:22.849Z,102146.16
2023-08-11T01:01:50.257Z,102144.41
2023-08-11T01:04:17.318Z,102136.13
2023-08-11T01:06:48.137Z,102145.84
2023-08-11T01:09:39.593Z,102139.84
2023-08-11T01:12:24.892Z,102137.16
2023-08-11T01:15:11.680Z,102134.25
2023-08-11T01:17:42.273Z,102142.00
2023-08-11T01:20:17.296Z,102133.72
2023-08-11T01:22:55.289Z,102107.56
2023-08-11T01:25:22.496Z,102133.88
2023-08-11T01:28:05.274Z,102137.13
2023-08-11T01:30:35.775Z,102128.22
2023-08-11T01:33:02.692Z,102129.63
2023-08-11T01:35:40.468Z,102127.91
2023-08-11T01:38:10.689Z,102127.41
2023-08-11T01:40:39.515Z,102130.97
2023-08-11T01:43:08.819Z,102126.25
2023-08-11T01:45:35.655Z,102118.19
2023-08-11T01:48:03.890Z,102129.84
2023-08-11T01:50:31.834Z,102123.41
2023-08-11T01:52:58.936Z,102123.72
2023-08-11T01:55:27.666Z,102125.88
2023-08-11T01:57:59.060Z,102116.53
2023-08-11T02:00:28.760Z,102121.94
2023-08-11T02:02:57.804Z,102125.75
2023-08-11T02:05:26.511Z,102127.97
2023-08-11T02:07:54.839Z,102123.50
2023-08-11T02:10:21.993Z,102122.69
2023-08-11T02:12:49.472Z,102120.47
2023-08-11T02:15:16.448Z,102125.81
2023-08-11T02:17:43.766Z,102129.28
2023-08-11T02:20:22.277Z,102120.63
2023-08-11T02:22:50.458Z,102111.22
2023-08-11T02:25:17.484Z,102116.50
2023-08-11T02:27:45.219Z,102109.72
2023-08-11T02:30:13.472Z,102107.97
2023-08-11T02:32:42.591Z,102112.44
2023-08-11T02:35:11.910Z,102096.41
2023-08-11T02:37:39.024Z,102100.72
2023-08-11T02:40:10.475Z,102096.41
2023-08-11T02:42:46.872Z,102084.19
2023-08-11T02:45:13.665Z,102096.41
2023-08-11T02:47:40.879Z,102098.59
2023-08-11T02:50:09.844Z,102093.47
2023-08-11T02:52:37.654Z,102089.72
2023-08-11T02:55:06.540Z,102086.09
2023-08-11T02:57:34.307Z,102080.25
2023-08-11T03:00:01.883Z,102078.47
2023-08-11T03:02:28.997Z,102079.59
2023-08-11T03:04:55.897Z,102083.22
2023-08-11T03:07:22.737Z,102073.81
2023-08-11T03:09:49.677Z,102072.03
2023-08-11T03:12:16.800Z,102070.19
2023-08-11T03:14:43.675Z,102070.56
2023-08-11T03:17:11.651Z,102072.38
2023-08-11T03:19:38.695Z,102082.63
2023-08-11T03:22:05.783Z,102075.50
2023-08-11T03:24:33.021Z,102073.16
2023-08-11T03:27:00.020Z,102084.38
2023-08-11T03:29:26.930Z,102086.72
2023-08-11T03:31:54.132Z,102081.59
2023-08-11T03:34:21.054Z,102089.88
2023-08-11T03:36:47.820Z,102089.72
2023-08-11T03:39:14.657Z,102093.00
2023-08-11T03:41:41.420Z,102093.69
2023-08-11T03:44:08.313Z,102086.59
2023-08-11T03:46:35.679Z,102089.06
2023-08-11T03:49:04.723Z,102081.31
2023-08-11T03:51:31.617Z,102086.28
2023-08-11T03:54:01.957Z,102082.78
2023-08-11T03:56:29.904Z,102080.81
2023-08-11T03:58:57.013Z,102090.25
2023-08-11T04:01:24.086Z,102094.88
2023-08-11T04:03:51.108Z,102082.16
2023-08-11T04:06:17.849Z,102075.03
2023-08-11T04:08:45.431Z,102078.84
2023-08-11T04:11:12.672Z,102070.94
2023-08-11T04:13:39.456Z,102078.03
2023-08-11T04:16:06.308Z,102087.44
2023-08-11T04:18:33.211Z,102088.59
2023-08-11T04:21:00.215Z,102096.06
2023-08-11T04:23:27.196Z,102091.91
2023-08-11T04:25:54.265Z,102090.97
2023-08-11T04:28:21.125Z,102084.66
2023-08-11T04:30:47.903Z,102080.72
2023-08-11T04:33:14.820Z,102086.00
2023-08-11T04:35:41.849Z,102083.69
2023-08-11T04:38:08.990Z,102082.69
2023-08-11T04:40:35.812Z,102074.75
2023-08-11T04:43:03.142Z,102079.19
2023-08-11T04:45:30.112Z,102073.91
2023-08-11T04:47:57.137Z,102077.06
2023-08-11T04:50:24.355Z,102077.53
2023-08-11T04:52:51.438Z,102079.47
2023-08-11T04:55:18.854Z,102077.63
2023-08-11T04:57:45.675Z,102077.28
2023-08-11T05:00:17.650Z,102073.50
2023-08-11T05:02:45.715Z,102046.53
2023-08-11T05:05:13.084Z,102076.09
2023-08-11T05:07:41.461Z,102076.28
2023-08-11T05:10:09.014Z,102074.94
2023-08-11T05:12:36.124Z,102071.94
2023-08-11T05:15:04.883Z,102075.75
2023-08-11T05:17:32.785Z,102080.84
2023-08-11T05:19:59.964Z,102083.16
2023-08-11T05:22:27.065Z,102082.63
2023-08-11T05:24:54.144Z,102082.09
2023-08-11T05:27:21.186Z,102076.81
2023-08-11T05:29:49.497Z,102069.84
2023-08-11T05:32:16.763Z,102061.25
2023-08-11T05:34:43.817Z,102077.44
2023-08-11T05:37:11.351Z,102079.47
2023-08-11T05:39:42.100Z,102061.22
2023-08-11T05:42:09.182Z,102065.50
2023-08-11T05:44:36.556Z,102052.09
2023-08-11T05:47:03.987Z,102065.56
2023-08-11T05:49:30.832Z,102061.69
2023-08-11T05:51:57.822Z,102063.31
2023-08-11T05:54:24.750Z,102074.06
2023-08-11T05:56:54.318Z,102041.44
2023-08-11T05:59:24.810Z,102063.88
2023-08-11T06:01:52.111Z,102043.59
2023-08-11T06:04:19.148Z,102063.63
2023-08-11T06:06:46.012Z,102068.59
2023-08-11T06:09:12.887Z,102075.25
2023-08-11T06:11:39.791Z,102073.38
2023-08-11T06:14:06.643Z,102075.66
2023-08-11T06:16:33.603Z,102056.91
2023-08-11T06:19:00.400Z,102081.75
2023-08-11T06:21:27.432Z,102058.06
2023-08-11T06:23:54.732Z,102070.63
2023-08-11T06:26:22.014Z,102077.28
2023-08-11T06:28:49.869Z,102074.75
2023-08-11T06:31:20.302Z,102074.06
2023-08-11T06:33:47.738Z,102080.03
2023-08-11T06:36:14.479Z,102070.06
2023-08-11T06:38:42.089Z,102076.81
2023-08-11T06:41:09.104Z,102083.03
2023-08-11T06:43:35.887Z,102084.00
2023-08-11T06:46:02.906Z,102078.88
2023-08-11T06:48:29.804Z,102087.03
2023-08-11T06:50:59.552Z,102086.44
2023-08-11T06:53:26.525Z,102084.59
2023-08-11T06:55:53.786Z,102082.56
2023-08-11T06:58:22.169Z,102090.81
2023-08-11T07:00:50.324Z,102088.97
2023-08-11T07:03:17.354Z,102086.81
2023-08-11T07:05:44.253Z,102088.97
2023-08-11T07:08:11.277Z,102090.94
2023-08-11T07:10:38.126Z,102089.53
2023-08-11T07:13:04.865Z,102096.13
2023-08-11T07:15:31.862Z,102087.28
2023-08-11T07:17:58.791Z,102102.72
2023-08-11T07:20:25.755Z,102104.97
2023-08-11T07:22:52.953Z,102109.34
2023-08-11T07:25:19.931Z,102108.63
2023-08-11T07:27:46.765Z,102114.88
2023-08-11T07:30:13.659Z,102109.09
2023-08-11T07:32:40.582Z,102115.34
2023-08-11T07:35:07.895Z,102113.19
2023-08-11T07:37:34.924Z,102108.47
2023-08-11T07:40:01.934Z,102109.28
2023-08-11T07:42:28.655Z,102112.03
2023-08-11T07:44:55.529Z,102109.22
2023-08-11T07:47:22.565Z,102099.81
2023-08-11T07:49:52.365Z,102104.50
2023-08-11T07:52:19.250Z,102112.94
2023-08-11T07:54:46.262Z,102103.88
2023-08-11T07:57:13.192Z,102107.00
2023-08-11T07:59:40.160Z,102105.94
2023-08-11T08:02:08.791Z,102116.97
2023-08-11T08:04:35.580Z,102111.13
2023-08-11T08:07:02.638Z,102113.50
2023-08-11T08:09:30.088Z,102101.91
2023-08-11T08:11:56.907Z,102096.56
2023-08-11T08:14:23.676Z,102102.44
2023-08-11T08:16:50.516Z,102108.63
2023-08-11T08:19:18.362Z,102116.41
2023-08-11T08:21:45.343Z,102096.88
2023-08-11T08:24:12.687Z,102104.50
2023-08-11T08:26:39.559Z,102102.22
2023-08-11T08:29:06.560Z,102101.78
2023-08-11T08:31:33.919Z,102097.97
2023-08-11T08:34:01.348Z,102107.13
2023-08-11T08:36:28.494Z,102099.16
2023-08-11T08:38:55.445Z,102098.53
2023-08-11T08:41:29.238Z,102096.38
2023-08-11T08:43:57.333Z,102100.78
2023-08-11T08:46:29.906Z,102092.00
2023-08-11T08:49:31.161Z,102090.25
2023-08-11T08:51:58.704Z,102098.03
2023-08-11T08:54:25.729Z,102090.19
2023-08-11T08:56:53.717Z,102095.38
2023-08-11T08:59:21.116Z,102085.53
2023-08-11T09:01:48.561Z,102098.44
2023-08-11T09:04:17.051Z,102092.31
2023-08-11T09:06:45.327Z,102092.34
2023-08-11T09:09:14.129Z,102091.72
2023-08-11T09:11:40.959Z,102086.94
2023-08-11T09:14:09.101Z,102093.53
2023-08-11T09:16:39.847Z,102088.19
2023-08-11T09:19:11.511Z,102088.38
2023-08-11T09:21:39.057Z,102090.72
2023-08-11T09:24:10.494Z,102089.88
2023-08-11T09:26:37.347Z,102097.22
2023-08-11T09:29:05.536Z,102090.25
2023-08-11T09:31:32.415Z,102099.59
2023-08-11T09:34:15.904Z,102111.09
2023-08-11T09:36:46.465Z,102099.84
2023-08-11T09:39:13.549Z,102091.53
2023-08-11T09:41:42.342Z,102094.19
2023-08-11T09:44:10.092Z,102093.31
2023-08-11T09:46:38.883Z,102094.75
2023-08-11T09:49:07.200Z,102105.34
2023-08-11T09:51:39.870Z,102102.13
2023-08-11T09:54:09.486Z,102105.53
2023-08-11T09:56:42.001Z,102099.78
2023-08-11T09:59:19.550Z,102102.56
2023-08-11T10:01:47.596Z,102105.47
2023-08-11T10:04:22.503Z,102101.91
2023-08-11T10:06:52.960Z,102095.09
2023-08-11T10:09:23.812Z,102093.69
2023-08-11T10:11:52.503Z,102080.19
2023-08-11T10:14:22.429Z,102090.53
2023-08-11T10:16:49.378Z,102073.75
2023-08-11T10:19:16.616Z,102079.03
2023-08-11T10:21:43.693Z,102075.66
2023-08-11T10:24:11.705Z,102076.53
2023-08-11T10:26:39.183Z,102079.25
2023-08-11T10:29:06.217Z,102075.06
2023-08-11T10:31:34.454Z,102081.03
2023-08-11T10:34:07.368Z,102068.63
2023-08-11T10:36:34.752Z,102067.38
2023-08-11T10:39:07.014Z,102067.88
2023-08-11T10:41:35.147Z,102062.81
2023-08-11T10:44:02.001Z,102060.88
2023-08-11T10:46:33.214Z,102059.63
2023-08-11T10:49:07.481Z,102069.81
2023-08-11T10:51:35.317Z,102062.81
2023-08-11T10:54:19.201Z,102068.91
2023-08-11T10:56:47.074Z,102071.41
2023-08-11T10:59:25.636Z,102083.72
2023-08-11T11:01:56.809Z,102074.25
2023-08-11T11:04:33.558Z,102077.34
2023-08-11T11:07:02.159Z,102078.88
2023-08-11T11:09:29.767Z,102075.59
2023-08-11T11:11:57.937Z,102070.28
2023-08-11T11:14:28.454Z,102054.78
2023-08-11T11:17:00.301Z,102057.41
2023-08-11T11:19:27.854Z,102058.84
2023-08-11T11:21:54.869Z,102049.88
2023-08-11T11:24:21.741Z,102041.41
2023-08-11T11:26:49.277Z,102050.72
2023-08-11T11:29:16.290Z,102047.31
2023-08-11T11:31:43.598Z,102041.56
2023-08-11T11:34:10.702Z,102032.25
2023-08-11T11:36:38.363Z,102027.56
2023-08-11T11:39:06.290Z,102036.69
2023-08-11T11:41:33.424Z,102038.56
2023-08-11T11:44:00.648Z,102034.66
2023-08-11T11:46:29.997Z,102036.34
2023-08-11T11:48:57.401Z,102033.88
2023-08-11T11:51:26.866Z,102036.81
2023-08-11T11:53:56.328Z,102034.78
2023-08-11T11:56:23.517Z,102037.34
2023-08-11T11:58:51.105Z,102032.13
2023-08-11T12:01:22.706Z,102040.97
2023-08-11T12:03:51.840Z,102041.38
2023-08-11T12:06:20.384Z,102041.06
2023-08-11T12:08:50.585Z,102032.78
2023-08-11T12:11:26.967Z,102021.47
2023-08-11T12:13:54.170Z,102027.97
2023-08-11T12:16:21.476Z,102026.91
2023-08-11T12:18:48.914Z,102010.13
2023-08-11T12:21:18.659Z,102011.06
2023-08-11T12:23:45.607Z,102023.06
2023-08-11T12:26:12.537Z,102026.47
2023-08-11T12:28:40.656Z,102017.84
2023-08-11T12:31:09.851Z,102021.44
2023-08-11T12:33:39.807Z,102035.91
2023-08-11T12:36:06.939Z,102032.84
2023-08-11T12:38:34.746Z,102030.28
2023-08-11T12:41:01.552Z,102031.81
2023-08-11T12:43:28.384Z,102033.84
2023-08-11T12:45:55.293Z,102015.63
2023-08-11T12:48:22.544Z,102021.94
2023-08-11T12:50:49.570Z,102021.25
2023-08-11T12:53:16.342Z,102017.16
2023-08-11T12:55:43.299Z,102014.59
2023-08-11T12:58:10.220Z,102022.78
2023-08-11T13:00:37.627Z,102013.22
2023-08-11T13:03:05.453Z,102021.22
2023-08-11T13:05:32.397Z,102013.06
2023-08-11T13:07:59.455Z,102012.03
2023-08-11T13:10:26.690Z,102003.34
2023-08-11T13:12:53.610Z,102008.50
2023-08-11T13:15:21.138Z,102004.25
2023-08-11T13:17:48.133Z,102005.00
2023-08-11T13:20:15.067Z,101999.31
2023-08-11T13:22:42.528Z,102002.53
2023-08-11T13:25:10.244Z,101996.91
2023-08-11T13:27:38.461Z,101997.41
2023-08-11T13:30:09.378Z,101989.47
2023-08-11T13:32:36.738Z,101969.78
2023-08-11T13:35:04.392Z,101976.91
2023-08-11T13:37:31.165Z,101984.44
2023-08-11T13:40:01.666Z,101982.78
2023-08-11T13:42:29.048Z,101974.22
2023-08-11T13:44:55.950Z,101965.41
2023-08-11T13:47:23.081Z,101977.66
2023-08-11T13:49:49.855Z,101979.81
2023-08-11T13:52:17.021Z,101970.88
2023-08-11T13:54:59.730Z,101962.25
2023-08-11T13:57:27.108Z,101966.31
2023-08-11T13:59:58.839Z,101956.03
2023-08-11T14:02:28.014Z,101958.75
2023-08-11T14:04:55.889Z,101966.44
2023-08-11T14:07:31.723Z,101954.03
2023-08-11T14:10:01.615Z,101944.59
2023-08-11T14:12:28.639Z,101949.69
2023-08-11T14:14:55.621Z,101940.63
2023-08-11T14:17:22.560Z,101949.63
2023-08-11T14:19:49.698Z,101937.19
2023-08-11T14:22:16.588Z,101938.63
2023-08-11T14:24:43.578Z,101947.16
2023-08-11T14:27:10.526Z,101955.34
2023-08-11T14:29:37.517Z,101945.97
2023-08-11T14:32:18.848Z,101942.72
2023-08-11T14:34:51.504Z,101936.09
2023-08-11T14:37:18.614Z,101934.22
2023-08-11T14:39:46.624Z,101916.81
2023-08-11T14:42:15.250Z,101939.13
2023-08-11T14:44:42.893Z,101935.88
2023-08-11T14:47:14.967Z,101919.88
2023-08-11T14:49:45.771Z,101919.50
2023-08-11T14:52:14.484Z,101927.69
2023-08-11T14:54:41.866Z,101915.53
2023-08-11T14:57:11.305Z,101918.78
2023-08-11T14:59:39.510Z,101914.34
2023-08-11T15:02:06.396Z,101908.06
2023-08-11T15:04:33.295Z,101917.31
2023-08-11T15:07:00.293Z,101919.78
2023-08-11T15:09:28.139Z,101918.09
2023-08-11T15:11:54.945Z,101917.25
2023-08-11T15:14:21.867Z,101912.75
2023-08-11T15:16:48.724Z,101895.09
2023-08-11T15:19:16.156Z,101902.56
2023-08-11T15:21:43.380Z,101896.91
2023-08-11T15:24:10.271Z,101899.81
2023-08-11T15:26:39.465Z,101905.06
2023-08-11T15:29:06.757Z,101897.91
2023-08-11T15:31:33.735Z,101892.59
2023-08-11T15:34:00.835Z,101898.25
2023-08-11T15:36:27.763Z,101892.13
2023-08-11T15:38:54.569Z,101897.94
2023-08-11T15:41:21.394Z,101890.19
2023-08-11T15:43:48.503Z,101888.06
2023-08-11T15:46:15.596Z,101894.19
2023-08-11T15:48:42.562Z,101890.19
2023-08-11T15:51:09.659Z,101886.56
2023-08-11T15:53:36.682Z,101890.53
2023-08-11T15:56:04.419Z,101884.44
2023-08-11T15:58:31.437Z,101887.19
2023-08-11T16:00:59.460Z,101879.84
2023-08-11T16:03:27.111Z,101877.97
2023-08-11T16:05:54.387Z,101871.88
2023-08-11T16:08:22.693Z,101869.13
2023-08-11T16:10:49.635Z,101868.13
2023-08-11T16:13:16.786Z,101866.94
2023-08-11T16:15:43.801Z,101867.38
2023-08-11T16:18:11.761Z,101876.72
2023-08-11T16:20:38.898Z,101869.81
2023-08-11T16:23:05.955Z,101875.09
2023-08-11T16:25:33.067Z,101880.44
2023-08-11T16:28:00.941Z,101880.81
2023-08-11T16:30:27.969Z,101877.31
2023-08-11T16:32:56.278Z,101873.59
2023-08-11T16:35:23.921Z,101873.63
2023-08-11T16:37:51.185Z,101882.56
2023-08-11T16:40:18.295Z,101874.09
2023-08-11T16:42:45.192Z,101882.72
2023-08-11T16:45:12.075Z,101881.94
2023-08-11T16:47:39.056Z,101884.00
2023-08-11T16:50:06.568Z,101880.72
2023-08-11T16:52:33.328Z,101879.84
2023-08-11T16:55:00.321Z,101873.31
2023-08-11T16:57:27.233Z,101868.03
2023-08-11T16:59:54.603Z,101875.38
2023-08-11T17:02:21.519Z,101871.31
2023-08-11T17:04:48.854Z,101873.38
2023-08-11T17:07:15.776Z,101875.88
2023-08-11T17:09:42.660Z,101872.59
2023-08-11T17:12:10.933Z,101864.41
2023-08-11T17:14:38.208Z,101864.47
2023-08-11T17:17:05.141Z,101864.88
2023-08-11T17:19:32.973Z,101860.75
2023-08-11T17:21:59.964Z,101862.41
2023-08-11T17:24:26.895Z,101864.44
2023-08-11T17:26:53.879Z,101864.03
2023-08-11T17:29:20.974Z,101859.53
2023-08-11T17:31:48.039Z,101862.84
2023-08-11T17:34:15.034Z,101871.00
2023-08-11T17:36:41.917Z,101862.44
2023-08-11T17:39:08.790Z,101858.75
2023-08-11T17:41:35.740Z,101859.53
2023-08-11T17:44:02.617Z,101856.28
2023-08-11T17:46:29.687Z,101851.81
2023-08-11T17:48:56.908Z,101854.25
2023-08-11T17:51:25.323Z,101856.31
2023-08-11T17:54:03.706Z,101847.72
2023-08-11T17:56:37.208Z,101853.81
2023-08-11T17:59:04.283Z,101852.53
2023-08-11T18:01:32.984Z,101857.78
2023-08-11T18:04:05.052Z,101860.59
2023-08-11T18:06:34.850Z,101863.00
2023-08-11T18:09:02.173Z,101855.91
2023-08-11T18:11:29.624Z,101866.09
2023-08-11T18:13:57.291Z,101867.53
2023-08-11T18:16:24.635Z,101865.00
2023-08-11T18:18:51.448Z,101871.69
2023-08-11T18:21:20.856Z,101863.34
2023-08-11T18:23:48.665Z,101865.78
2023-08-11T18:26:17.385Z,101866.13
2023-08-11T18:28:44.472Z,101863.97
2023-08-11T18:31:11.488Z,101860.59
2023-08-11T18:33:38.597Z,101860.91
2023-08-11T18:36:05.667Z,101855.16
2023-08-11T18:38:32.524Z,101847.69
2023-08-11T18:40:59.442Z,101849.59
2023-08-11T18:43:27.957Z,101851.88
2023-08-11T18:45:54.879Z,101857.97
2023-08-11T18:48:22.193Z,101854.81
2023-08-11T18:50:49.377Z,101855.88
2023-08-11T18:53:16.480Z,101863.41
2023-08-11T18:55:43.792Z,101870.44
2023-08-11T18:58:10.792Z,101870.31
2023-08-11T19:00:39.498Z,101858.44
2023-08-11T19:03:06.510Z,101856.19
2023-08-11T19:05:35.263Z,101859.41
2023-08-11T19:08:03.357Z,101860.78
2023-08-11T19:10:30.292Z,101854.09
2023-08-11T19:12:57.508Z,101861.50
2023-08-11T19:15:24.409Z,101857.75
2023-08-11T19:17:51.307Z,101861.00
2023-08-11T19:20:18.551Z,101858.88
2023-08-11T19:22:45.506Z,101852.72
2023-08-11T19:25:12.889Z,101852.59
2023-08-11T19:27:40.117Z,101855.72
2023-08-11T19:30:08.182Z,101847.59
2023-08-11T19:32:36.228Z,101836.78
2023-08-11T19:35:03.692Z,101843.63
2023-08-11T19:37:30.842Z,101848.72
2023-08-11T19:39:57.844Z,101850.78
2023-08-11T19:42:24.880Z,101854.00
2023-08-11T19:44:51.925Z,101847.97
2023-08-11T19:47:18.953Z,101844.22
2023-08-11T19:49:45.999Z,101849.31
2023-08-11T19:52:13.438Z,101797.97
2023-08-11T19:54:40.703Z,101842.97
2023-08-11T19:57:07.702Z,101834.81
2023-08-11T19:59:35.029Z,101830.81
2023-08-11T20:02:01.959Z,101802.19
2023-08-11T20:04:28.856Z,101826.53
2023-08-11T20:06:56.185Z,101825.22
2023-08-11T20:09:25.773Z,101827.06
2023-08-11T20:11:53.029Z,101798.03
2023-08-11T20:14:20.125Z,101815.13
2023-08-11T20:16:47.684Z,101811.47
2023-08-11T20:19:14.435Z,101813.03
2023-08-11T20:21:42.797Z,101808.28
2023-08-11T20:24:10.962Z,101809.91
2023-08-11T20:26:37.848Z,101809.75
2023-08-11T20:29:05.163Z,101807.66
2023-08-11T20:31:34.317Z,101803.84
2023-08-11T20:34:01.568Z,101807.16
2023-08-11T20:36:28.858Z,101809.06
2023-08-11T20:38:56.256Z,101803.41
2023-08-11T20:41:23.206Z,101820.72
2023-08-11T20:43:50.325Z,101792.31
2023-08-11T20:46:17.457Z,101809.44
2023-08-11T20:48:44.503Z,101803.47
2023-08-11T20:51:13.088Z,101802.22
2023-08-11T20:53:40.225Z,101804.50
2023-08-11T20:56:09.366Z,101805.16
2023-08-11T20:58:36.877Z,101804.69
2023-08-11T21:01:04.166Z,101806.09
2023-08-11T21:03:31.314Z,101807.00
2023-08-11T21:05:58.378Z,101804.38
2023-08-11T21:08:25.272Z,101803.00
2023-08-11T21:10:52.458Z,101798.81
2023-08-11T21:13:19.351Z,101801.47
2023-08-11T21:15:46.244Z,101809.38
2023-08-11T21:18:13.513Z,101805.28
2023-08-11T21:20:40.469Z,101806.97
2023-08-11T21:23:07.889Z,101806.16
2023-08-11T21:25:35.598Z,101811.91
2023-08-11T21:28:02.589Z,101806.78
2023-08-11T21:30:29.516Z,101807.75
2023-08-11T21:32:56.906Z,101795.91
2023-08-11T21:35:23.962Z,101799.56
2023-08-11T21:37:50.710Z,101801.22
2023-08-11T21:40:18.090Z,101807.03
2023-08-11T21:42:46.072Z,101810.63
2023-08-11T21:45:13.022Z,101801.22
2023-08-11T21:47:40.084Z,101800.19
2023-08-11T21:50:08.436Z,101800.47
2023-08-11T21:52:35.701Z,101799.88
2023-08-11T21:55:04.491Z,101794.75
2023-08-11T21:57:32.653Z,101791.19
2023-08-11T22:00:00.622Z,101779.69
2023-08-11T22:02:27.781Z,101789.81
2023-08-11T22:04:54.788Z,101798.41
2023-08-11T22:07:21.688Z,101793.56
2023-08-11T22:09:48.565Z,101791.09
2023-08-11T22:12:15.490Z,101786.66
2023-08-11T22:14:42.574Z,101793.66
2023-08-11T22:17:11.499Z,101789.19
2023-08-11T22:19:41.154Z,101789.19
2023-08-11T22:22:08.711Z,101783.91
2023-08-11T22:24:41.054Z,101778.84
2023-08-11T22:27:12.242Z,101787.75
2023-08-11T22:29:39.679Z,101776.66
2023-08-11T22:32:06.748Z,101774.47
2023-08-11T22:34:33.828Z,101787.16
2023-08-11T22:37:00.761Z,101781.09
2023-08-11T22:39:27.826Z,101790.78
2023-08-11T22:41:54.847Z,101776.38
2023-08-11T22:44:21.774Z,101779.22
2023-08-11T22:46:48.601Z,101782.78
2023-08-11T22:49:15.622Z,101778.09
2023-08-11T22:51:42.717Z,101783.84
2023-08-11T22:54:09.885Z,101768.69
2023-08-11T22:56:36.665Z,101766.38
2023-08-11T22:59:04.001Z,101761.84
2023-08-11T23:01:31.057Z,101763.03
2023-08-11T23:03:58.036Z,101768.13
2023-08-11T23:06:25.389Z,101773.53
2023-08-11T23:08:52.716Z,101773.16
2023-08-11T23:11:19.564Z,101778.44
2023-08-11T23:13:46.854Z,101777.88
2023-08-11T23:16:14.160Z,101779.19
2023-08-11T23:18:41.186Z,101783.56
2023-08-11T23:21:08.123Z,101771.34
2023-08-11T23:23:35.124Z,101775.00
2023-08-11T23:26:02.007Z,101760.72
2023-08-11T23:28:29.542Z,101764.31
2023-08-11T23:30:56.593Z,101756.91
2023-08-11T23:33:23.643Z,101768.78
2023-08-11T23:35:50.610Z,101759.03
2023-08-11T23:38:17.359Z,101752.16
2023-08-11T23:40:44.458Z,101752.16
2023-08-11T23:43:11.552Z,101758.66
2023-08-11T23:45:38.549Z,101747.88
2023-08-11T23:48:07.415Z,101750.97
2023-08-11T23:50:34.865Z,101749.34
2023-08-11T23:53:02.240Z,101736.25
2023-08-11T23:55:29.328Z,101741.41
2023-08-11T23:57:56.553Z,101740.94
